62.2°F
Current conditions from King Hill
Updated every 5 minutes
 
  Monday July 28, 2014

Station Historical Data
Daily Summary for August 11, 2012 Units:  English    Metric   Both
« Previous Day
Next Day »
Daily Weekly Monthly Yearly Custom
  High: Low: Average:
Temperature: 83.5 °F 62.2 °F 70.1 °F
Dew Point: 71.6 °F 61.0 °F 66.3 °F
Humidity: 97% 65% 89%
Wind Speed: 8.0mph 0.0mph 2.4mph
Wind Gust: 18.0mph - -
Wind- - SSW
Pressure: 29.83 in 29.77 in -
Precipitation: 0.84 in    
Historical Graphs
 
 
Tabular Data for August 11, 2012
Time Temperature Dew Point Pressure Wind Wind Speed Wind Gust Humidity Daily Rainfall
00:04 65.7 °F 64.5 °F 29.78 in Calm     96% 0.00 in
00:09 65.5 °F 64.3 °F 29.77 in Calm     96% 0.00 in
00:14 65.4 °F 64.2 °F 29.77 in Calm     96% 0.00 in
00:19 65.4 °F 64.2 °F 29.77 in Calm     96% 0.00 in
00:24 65.4 °F 64.2 °F 29.77 in Calm   1.0 mph 96% 0.00 in
00:29 65.3 °F 64.1 °F 29.77 in Calm   1.0 mph 96% 0.00 in
00:35 65.3 °F 64.1 °F 29.77 in Calm     96% 0.00 in
00:44 65.3 °F 64.1 °F 29.77 in Calm     96% 0.00 in
00:49 65.2 °F 64.0 °F 29.77 in Calm     96% 0.00 in
00:54 65.0 °F 63.8 °F 29.77 in Calm     96% 0.00 in
00:59 64.8 °F 63.6 °F 29.77 in Calm     96% 0.00 in
01:04 64.7 °F 63.5 °F 29.77 in Calm   2.0 mph 96% 0.00 in
01:09 64.7 °F 63.5 °F 29.77 in Calm   2.0 mph 96% 0.00 in
01:14 64.9 °F 63.7 °F 29.77 in Calm     96% 0.00 in
01:19 65.2 °F 64.0 °F 29.77 in Calm   2.0 mph 96% 0.00 in
01:24 64.9 °F 63.7 °F 29.77 in Calm   2.0 mph 96% 0.00 in
01:29 64.6 °F 63.4 °F 29.77 in Calm     96% 0.00 in
01:34 64.7 °F 63.5 °F 29.77 in Calm   2.0 mph 96% 0.00 in
01:39 64.9 °F 63.7 °F 29.77 in Calm   2.0 mph 96% 0.00 in
01:44 65.0 °F 63.8 °F 29.77 in Calm     96% 0.00 in
01:49 64.8 °F 63.6 °F 29.77 in Calm     96% 0.00 in
01:54 64.6 °F 63.4 °F 29.77 in Calm     96% 0.00 in
01:59 64.4 °F 63.2 °F 29.77 in Calm     96% 0.00 in
02:04 64.1 °F 62.9 °F 29.77 in Calm     96% 0.00 in
02:14 63.5 °F 62.3 °F 29.77 in Calm     96% 0.00 in
02:19 63.4 °F 62.2 °F 29.77 in Calm     96% 0.00 in
02:24 63.4 °F 62.2 °F 29.77 in Calm     96% 0.00 in
02:34 63.2 °F 62.0 °F 29.78 in Calm     96% 0.00 in
02:39 63.2 °F 62.0 °F 29.77 in Calm     96% 0.00 in
02:44 63.4 °F 62.2 °F 29.77 in Calm     96% 0.00 in
02:49 63.5 °F 62.3 °F 29.77 in Calm   1.0 mph 96% 0.00 in
02:54 63.7 °F 62.5 °F 29.77 in Calm   1.0 mph 96% 0.00 in
02:59 64.0 °F 63.1 °F 29.77 in Calm     97% 0.00 in
03:04 64.3 °F 63.1 °F 29.77 in Calm     96% 0.00 in
03:09 64.6 °F 63.7 °F 29.77 in Calm   1.0 mph 97% 0.00 in
03:14 64.4 °F 63.5 °F 29.77 in Calm   1.0 mph 97% 0.00 in
03:24 63.8 °F 62.6 °F 29.78 in Calm     96% 0.00 in
03:29 63.6 °F 62.4 °F 29.78 in Calm     96% 0.00 in
03:34 63.7 °F 62.5 °F 29.77 in Calm     96% 0.00 in
03:39 63.9 °F 63.0 °F 29.78 in Calm     97% 0.00 in
03:44 64.0 °F 63.1 °F 29.78 in Calm     97% 0.00 in
03:49 63.9 °F 63.0 °F 29.78 in Calm     97% 0.00 in
03:54 63.7 °F 62.8 °F 29.78 in Calm     97% 0.00 in
03:59 63.5 °F 62.3 °F 29.78 in Calm     96% 0.00 in
04:04 63.5 °F 62.3 °F 29.78 in Calm     96% 0.00 in
04:09 63.4 °F 62.2 °F 29.78 in Calm     96% 0.00 in
04:14 63.2 °F 62.0 °F 29.78 in Calm     96% 0.00 in
04:19 63.2 °F 62.3 °F 29.77 in Calm     97% 0.00 in
04:24 63.2 °F 62.3 °F 29.78 in Calm     97% 0.00 in
04:29 63.2 °F 62.3 °F 29.78 in Calm     97% 0.00 in
04:34 62.9 °F 61.7 °F 29.78 in Calm     96% 0.00 in
04:39 62.7 °F 61.5 °F 29.77 in Calm     96% 0.00 in
04:44 62.7 °F 61.8 °F 29.78 in Calm     97% 0.00 in
04:49 62.6 °F 61.7 °F 29.78 in Calm     97% 0.00 in
04:54 62.4 °F 61.5 °F 29.78 in Calm     97% 0.00 in
04:59 62.3 °F 61.1 °F 29.78 in Calm     96% 0.00 in
05:04 62.3 °F 61.1 °F 29.79 in Calm     96% 0.00 in
05:09 62.2 °F 61.0 °F 29.79 in Calm     96% 0.00 in
05:14 62.3 °F 61.1 °F 29.79 in Calm     96% 0.00 in
05:19 62.8 °F 61.9 °F 29.79 in Calm     97% 0.00 in
05:24 62.6 °F 61.7 °F 29.79 in Calm     97% 0.00 in
05:29 62.2 °F 61.0 °F 29.79 in Calm     96% 0.00 in
05:34 62.3 °F 61.1 °F 29.79 in Calm     96% 0.00 in
05:39 62.7 °F 61.8 °F 29.78 in Calm     97% 0.00 in
05:44 63.1 °F 62.2 °F 29.79 in Calm   1.0 mph 97% 0.00 in
05:49 63.1 °F 62.2 °F 29.79 in Calm   1.0 mph 97% 0.00 in
05:54 63.1 °F 62.2 °F 29.79 in Calm     97% 0.00 in
05:59 62.7 °F 61.8 °F 29.79 in Calm     97% 0.00 in
06:04 62.5 °F 61.6 °F 29.79 in Calm     97% 0.00 in
06:09 62.5 °F 61.6 °F 29.79 in Calm     97% 0.00 in
06:14 62.5 °F 61.6 °F 29.79 in Calm     97% 0.00 in
06:19 62.8 °F 61.9 °F 29.79 in Calm     97% 0.00 in
06:24 62.9 °F 62.0 °F 29.79 in Calm   2.0 mph 97% 0.00 in
06:29 63.5 °F 62.6 °F 29.79 in Calm   2.0 mph 97% 0.00 in
06:34 63.4 °F 62.5 °F 29.80 in Calm   2.0 mph 97% 0.00 in
06:39 62.9 °F 62.0 °F 29.80 in Calm     97% 0.00 in
06:44 62.4 °F 61.2 °F 29.80 in Calm     96% 0.00 in
06:49 62.4 °F 61.5 °F 29.80 in Calm     97% 0.00 in
06:54 62.7 °F 61.8 °F 29.80 in Calm     97% 0.00 in
06:59 62.9 °F 62.0 °F 29.80 in Calm     97% 0.00 in
07:04 63.3 °F 62.4 °F 29.80 in Calm     97% 0.01 in
07:09 63.8 °F 62.9 °F 29.80 in Calm     97% 0.01 in
07:14 64.2 °F 63.3 °F 29.80 in Calm     97% 0.01 in
07:19 64.5 °F 63.6 °F 29.80 in Calm   1.0 mph 97% 0.01 in
07:24 64.8 °F 63.9 °F 29.80 in Calm   3.0 mph 97% 0.01 in
07:29 65.2 °F 64.3 °F 29.80 in Calm   3.0 mph 97% 0.01 in
07:34 65.6 °F 64.7 °F 29.80 in Calm   1.0 mph 97% 0.01 in
07:39 66.1 °F 65.2 °F 29.80 in Calm   1.0 mph 97% 0.01 in
07:44 66.8 °F 65.9 °F 29.80 in Calm     97% 0.01 in
07:49 67.3 °F 66.4 °F 29.80 in South 1.0 mph 4.0 mph 97% 0.01 in
07:54 67.7 °F 66.8 °F 29.80 in Calm   4.0 mph 97% 0.01 in
07:59 68.1 °F 67.2 °F 29.80 in Calm   3.0 mph 97% 0.01 in
08:04 68.6 °F 67.7 °F 29.80 in Calm   3.0 mph 97% 0.01 in
08:09 69.1 °F 68.2 °F 29.80 in Calm     97% 0.01 in
08:14 69.6 °F 68.7 °F 29.81 in Calm     97% 0.01 in
08:19 70.1 °F 69.2 °F 29.80 in Calm     97% 0.01 in
08:24 70.3 °F 69.4 °F 29.80 in Calm     97% 0.01 in
08:29 70.4 °F 69.5 °F 29.81 in Calm     97% 0.01 in
08:34 70.5 °F 69.6 °F 29.81 in Calm     97% 0.01 in
08:39 70.7 °F 69.8 °F 29.81 in Calm     97% 0.01 in
08:44 71.2 °F 70.3 °F 29.81 in Calm     97% 0.01 in
08:49 71.3 °F 70.1 °F 29.81 in SSE 2.0 mph 6.0 mph 96% 0.01 in
08:54 72.0 °F 70.2 °F 29.81 in Calm   6.0 mph 94% 0.01 in
08:59 72.5 °F 69.4 °F 29.81 in SSW 2.0 mph 5.0 mph 90% 0.01 in
09:04 73.1 °F 69.7 °F 29.81 in Calm   5.0 mph 89% 0.01 in
09:09 74.0 °F 69.9 °F 29.81 in Calm   1.0 mph 87% 0.01 in
09:14 74.8 °F 69.6 °F 29.81 in Calm   1.0 mph 84% 0.01 in
09:19 75.7 °F 70.9 °F 29.81 in Calm   3.0 mph 85% 0.01 in
09:24 76.4 °F 70.1 °F 29.81 in SW 1.0 mph 4.0 mph 81% 0.01 in
09:29 76.3 °F 69.7 °F 29.81 in SSW 2.0 mph 7.0 mph 80% 0.01 in
09:34 76.1 °F 69.1 °F 29.82 in Calm   7.0 mph 79% 0.01 in
09:39 76.0 °F 69.4 °F 29.82 in SW 4.0 mph 7.0 mph 80% 0.01 in
09:44 76.0 °F 69.4 °F 29.81 in SSE 1.0 mph 7.0 mph 80% 0.01 in
09:49 76.2 °F 69.6 °F 29.82 in SSW 2.0 mph 7.0 mph 80% 0.01 in
09:54 76.6 °F 69.6 °F 29.82 in West 2.0 mph 5.0 mph 79% 0.01 in
09:59 76.7 °F 69.3 °F 29.82 in Calm   8.0 mph 78% 0.01 in
10:04 76.9 °F 69.9 °F 29.82 in Calm   8.0 mph 79% 0.01 in
10:09 77.3 °F 69.9 °F 29.82 in SSE 3.0 mph 7.0 mph 78% 0.01 in
10:14 77.6 °F 69.4 °F 29.82 in Calm   7.0 mph 76% 0.01 in
10:19 77.9 °F 69.7 °F 29.82 in Calm   7.0 mph 76% 0.01 in
10:24 78.2 °F 69.6 °F 29.82 in WSW 4.0 mph 6.0 mph 75% 0.01 in
10:29 78.2 °F 70.0 °F 29.82 in SE 4.0 mph 9.0 mph 76% 0.01 in
10:39 78.4 °F 70.6 °F 29.82 in SW 2.0 mph 7.0 mph 77% 0.01 in
10:44 78.7 °F 69.7 °F 29.82 in SSW 3.0 mph 7.0 mph 74% 0.01 in
10:49 77.9 °F 69.0 °F 29.81 in SW 3.0 mph 7.0 mph 74% 0.01 in
10:54 77.8 °F 69.2 °F 29.81 in South 1.0 mph 5.0 mph 75% 0.01 in
10:59 78.0 °F 69.0 °F 29.81 in Calm   6.0 mph 74% 0.01 in
11:04 77.9 °F 69.0 °F 29.81 in Calm   6.0 mph 74% 0.01 in
11:09 78.0 °F 69.0 °F 29.82 in Calm   1.0 mph 74% 0.01 in
11:14 78.7 °F 71.6 °F 29.81 in SSW 1.0 mph 7.0 mph 79% 0.01 in
11:19 79.0 °F 70.0 °F 29.82 in South 2.0 mph 7.0 mph 74% 0.01 in
11:24 79.4 °F 68.8 °F 29.82 in Calm   7.0 mph 70% 0.01 in
11:29 79.3 °F 69.1 °F 29.81 in SSW 3.0 mph 7.0 mph 71% 0.01 in
11:34 79.0 °F 69.2 °F 29.81 in Calm   7.0 mph 72% 0.01 in
11:39 80.0 °F 70.6 °F 29.81 in SW 1.0 mph 7.0 mph 73% 0.01 in
11:44 80.8 °F 70.5 °F 29.81 in SSE 1.0 mph 8.0 mph 71% 0.01 in
11:54 80.6 °F 69.9 °F 29.81 in Calm   6.0 mph 70% 0.01 in
11:59 80.5 °F 69.8 °F 29.81 in SSW 4.0 mph 8.0 mph 70% 0.01 in
12:04 81.1 °F 70.0 °F 29.81 in SSW 4.0 mph 8.0 mph 69% 0.01 in
12:09 81.6 °F 69.6 °F 29.80 in SSW 2.0 mph 8.0 mph 67% 0.01 in
12:14 81.7 °F 70.1 °F 29.80 in SW 2.0 mph 7.0 mph 68% 0.01 in
12:19 82.2 °F 70.2 °F 29.80 in Calm   9.0 mph 67% 0.01 in
12:24 82.8 °F 71.2 °F 29.80 in Calm   9.0 mph 68% 0.01 in
12:29 82.9 °F 70.8 °F 29.80 in SW 1.0 mph 6.0 mph 67% 0.01 in
12:34 83.1 °F 71.0 °F 29.80 in Calm   8.0 mph 67% 0.01 in
12:44 83.0 °F 70.9 °F 29.80 in SSW 2.0 mph 8.0 mph 67% 0.01 in
12:49 82.8 °F 70.3 °F 29.80 in South 3.0 mph 8.0 mph 66% 0.01 in
12:54 82.7 °F 69.8 °F 29.80 in SSE 1.0 mph 8.0 mph 65% 0.01 in
13:04 81.9 °F 70.3 °F 29.80 in SSW 1.0 mph 5.0 mph 68% 0.01 in
13:09 81.9 °F 70.3 °F 29.79 in Calm   5.0 mph 68% 0.01 in
13:14 82.5 °F 70.9 °F 29.80 in South 5.0 mph 7.0 mph 68% 0.01 in
13:19 83.1 °F 70.6 °F 29.80 in SSW 3.0 mph 9.0 mph 66% 0.01 in
13:24 83.5 °F 71.4 °F 29.79 in SSW 3.0 mph 9.0 mph 67% 0.01 in
13:29 83.1 °F 71.0 °F 29.79 in WNW 1.0 mph 9.0 mph 67% 0.01 in
13:34 83.2 °F 70.7 °F 29.79 in WSW 5.0 mph 10.0 mph 66% 0.01 in
13:39 82.9 °F 70.4 °F 29.79 in WSW 3.0 mph 10.0 mph 66% 0.01 in
13:44 82.8 °F 70.7 °F 29.79 in SW 5.0 mph 9.0 mph 67% 0.01 in
13:54 82.8 °F 71.2 °F 29.78 in SW 2.0 mph 12.0 mph 68% 0.01 in
13:59 82.2 °F 69.7 °F 29.79 in SW 3.0 mph 7.0 mph 66% 0.01 in
14:04 81.7 °F 69.2 °F 29.78 in Calm   7.0 mph 66% 0.01 in
14:09 81.3 °F 70.2 °F 29.78 in Calm   8.0 mph 69% 0.01 in
14:14 81.8 °F 71.1 °F 29.78 in SW 1.0 mph 8.0 mph 70% 0.01 in
14:19 82.4 °F 70.8 °F 29.78 in SSW 4.0 mph 8.0 mph 68% 0.01 in
14:24 82.6 °F 69.7 °F 29.78 in SSW 4.0 mph 9.0 mph 65% 0.01 in
14:29 82.1 °F 69.6 °F 29.78 in SW 4.0 mph 9.0 mph 66% 0.01 in
14:34 81.6 °F 69.6 °F 29.78 in South 3.0 mph 8.0 mph 67% 0.01 in
14:39 81.3 °F 68.9 °F 29.78 in SSE 4.0 mph 11.0 mph 66% 0.01 in
14:44 80.9 °F 69.8 °F 29.78 in Calm   11.0 mph 69% 0.01 in
14:49 80.8 °F 69.7 °F 29.78 in SW 4.0 mph 9.0 mph 69% 0.01 in
14:54 80.6 °F 69.9 °F 29.78 in Calm   9.0 mph 70% 0.01 in
14:59 80.7 °F 70.0 °F 29.78 in SSW 1.0 mph 7.0 mph 70% 0.01 in
15:04 80.1 °F 69.0 °F 29.78 in SSW 4.0 mph 14.0 mph 69% 0.01 in
15:09 79.0 °F 68.4 °F 29.78 in South 4.0 mph 14.0 mph 70% 0.01 in
15:14 78.3 °F 69.3 °F 29.78 in South 1.0 mph 9.0 mph 74% 0.01 in
15:19 77.7 °F 69.2 °F 29.78 in Calm   8.0 mph 75% 0.01 in
15:24 77.2 °F 68.7 °F 29.78 in Calm   6.0 mph 75% 0.01 in
15:29 76.9 °F 68.8 °F 29.78 in Calm   6.0 mph 76% 0.01 in
15:34 76.6 °F 68.5 °F 29.78 in Calm   1.0 mph 76% 0.01 in
15:39 76.4 °F 68.7 °F 29.78 in Calm   1.0 mph 77% 0.01 in
15:44 76.1 °F 68.4 °F 29.78 in South 1.0 mph 4.0 mph 77% 0.01 in
15:49 75.6 °F 68.3 °F 29.78 in South 2.0 mph 4.0 mph 78% 0.01 in
15:54 75.2 °F 68.2 °F 29.78 in SSE 1.0 mph 4.0 mph 79% 0.01 in
15:59 74.9 °F 68.7 °F 29.79 in SSW 1.0 mph 5.0 mph 81% 0.01 in
16:04 74.2 °F 68.4 °F 29.78 in SE 1.0 mph 5.0 mph 82% 0.02 in
16:09 73.5 °F 68.0 °F 29.78 in Calm   4.0 mph 83% 0.02 in
16:14 73.0 °F 68.2 °F 29.78 in Calm   3.0 mph 85% 0.03 in
16:19 72.7 °F 68.3 °F 29.79 in Calm   2.0 mph 86% 0.04 in
16:24 72.3 °F 68.2 °F 29.79 in Calm   1.0 mph 87% 0.04 in
16:29 72.1 °F 68.4 °F 29.78 in Calm   1.0 mph 88% 0.04 in
16:34 71.9 °F 68.5 °F 29.78 in Calm     89% 0.04 in
16:44 71.6 °F 68.5 °F 29.78 in Calm     90% 0.04 in
16:54 71.8 °F 69.0 °F 29.78 in Calm   3.0 mph 91% 0.04 in
16:59 72.1 °F 69.3 °F 29.78 in Calm   1.0 mph 91% 0.04 in
17:04 72.2 °F 69.4 °F 29.78 in Calm   1.0 mph 91% 0.04 in
17:09 72.6 °F 69.8 °F 29.78 in Calm   1.0 mph 91% 0.04 in
17:14 72.8 °F 70.0 °F 29.79 in Calm     91% 0.04 in
17:19 72.9 °F 70.1 °F 29.79 in Calm     91% 0.04 in
17:24 72.8 °F 69.7 °F 29.79 in Calm   1.0 mph 90% 0.04 in
17:29 72.8 °F 70.0 °F 29.79 in Calm   1.0 mph 91% 0.04 in
17:34 72.8 °F 70.0 °F 29.79 in Calm     91% 0.04 in
17:39 72.8 °F 70.0 °F 29.79 in Calm     91% 0.04 in
17:44 72.9 °F 70.1 °F 29.78 in Calm     91% 0.04 in
17:49 72.8 °F 70.0 °F 29.79 in South 1.0 mph 4.0 mph 91% 0.04 in
17:54 72.7 °F 69.9 °F 29.79 in Calm   4.0 mph 91% 0.04 in
17:59 72.6 °F 69.8 °F 29.79 in Calm   2.0 mph 91% 0.04 in
18:04 72.4 °F 69.3 °F 29.79 in Calm   1.0 mph 90% 0.04 in
18:09 72.4 °F 69.6 °F 29.79 in Calm     91% 0.04 in
18:14 72.2 °F 69.4 °F 29.79 in Calm     91% 0.04 in
18:19 72.1 °F 69.3 °F 29.79 in Calm     91% 0.04 in
18:24 71.9 °F 69.1 °F 29.78 in Calm     91% 0.04 in
18:29 71.7 °F 68.9 °F 29.78 in Calm     91% 0.04 in
18:34 71.6 °F 68.8 °F 29.79 in Calm     91% 0.06 in
18:39 71.3 °F 68.9 °F 29.79 in Calm     92% 0.08 in
18:44 71.3 °F 68.9 °F 29.80 in Calm     92% 0.10 in
18:49 71.2 °F 68.8 °F 29.80 in Calm     92% 0.13 in
18:54 71.0 °F 68.6 °F 29.80 in Calm     92% 0.16 in
18:59 70.9 °F 68.5 °F 29.79 in Calm     92% 0.17 in
19:04 70.9 °F 68.5 °F 29.79 in Calm     92% 0.17 in
19:09 70.7 °F 68.6 °F 29.82 in SW 3.0 mph 6.0 mph 93% 0.20 in
19:14 69.6 °F 67.2 °F 29.82 in SW 4.0 mph 18.0 mph 92% 0.47 in
19:19 68.3 °F 65.6 °F 29.83 in SW 8.0 mph 18.0 mph 91% 0.64 in
19:24 67.2 °F 64.5 °F 29.82 in WSW 1.0 mph 16.0 mph 91% 0.74 in
19:29 66.8 °F 64.4 °F 29.81 in WSW 1.0 mph 8.0 mph 92% 0.81 in
19:34 66.7 °F 64.3 °F 29.80 in Calm   3.0 mph 92% 0.83 in
19:39 66.8 °F 64.7 °F 29.80 in Calm     93% 0.83 in
19:44 66.8 °F 64.7 °F 29.80 in Calm     93% 0.83 in
19:49 66.7 °F 64.6 °F 29.80 in Calm     93% 0.83 in
19:54 66.6 °F 64.5 °F 29.80 in WSW 1.0 mph 2.0 mph 93% 0.83 in
19:59 66.4 °F 64.3 °F 29.80 in Calm   2.0 mph 93% 0.83 in
20:04 66.3 °F 64.2 °F 29.79 in Calm   1.0 mph 93% 0.83 in
20:09 66.1 °F 64.3 °F 29.80 in Calm     94% 0.83 in
20:14 65.9 °F 64.1 °F 29.80 in WSW 1.0 mph 4.0 mph 94% 0.83 in
20:19 65.7 °F 63.9 °F 29.80 in Calm   4.0 mph 94% 0.83 in
20:24 65.6 °F 63.8 °F 29.80 in Calm   3.0 mph 94% 0.83 in
20:29 65.4 °F 63.6 °F 29.80 in Calm     94% 0.83 in
20:34 65.2 °F 63.4 °F 29.80 in SE 1.0 mph 4.0 mph 94% 0.83 in
20:39 65.4 °F 63.9 °F 29.80 in Calm   4.0 mph 95% 0.83 in
20:44 65.4 °F 63.9 °F 29.80 in Calm   2.0 mph 95% 0.83 in
20:49 65.2 °F 63.7 °F 29.80 in Calm   1.0 mph 95% 0.83 in
20:54 65.3 °F 63.8 °F 29.80 in Calm   2.0 mph 95% 0.83 in
20:59 65.4 °F 63.9 °F 29.80 in Calm   2.0 mph 95% 0.83 in
21:04 65.4 °F 63.9 °F 29.80 in Calm     95% 0.83 in
21:09 65.3 °F 63.8 °F 29.80 in Calm     95% 0.83 in
21:14 65.2 °F 63.7 °F 29.80 in Calm   2.0 mph 95% 0.83 in
21:19 65.6 °F 64.4 °F 29.80 in Calm   3.0 mph 96% 0.83 in
21:24 65.9 °F 64.7 °F 29.80 in Calm   3.0 mph 96% 0.83 in
21:29 65.9 °F 64.7 °F 29.81 in Calm     96% 0.83 in
21:34 65.8 °F 64.6 °F 29.80 in Calm     96% 0.83 in
21:39 65.6 °F 64.4 °F 29.81 in Calm     96% 0.83 in
21:44 65.3 °F 64.1 °F 29.81 in Calm     96% 0.83 in
21:49 65.0 °F 63.8 °F 29.81 in Calm     96% 0.83 in
21:54 64.8 °F 63.6 °F 29.81 in Calm     96% 0.84 in
21:59 64.8 °F 63.6 °F 29.80 in Calm     96% 0.84 in
22:04 64.7 °F 63.5 °F 29.81 in Calm     96% 0.84 in
22:09 64.7 °F 63.5 °F 29.81 in Calm     96% 0.84 in
22:14 64.8 °F 63.6 °F 29.81 in Calm     96% 0.84 in
22:19 64.8 °F 63.6 °F 29.80 in Calm     96% 0.84 in
22:24 64.8 °F 63.6 °F 29.81 in Calm     96% 0.84 in
22:29 64.9 °F 63.7 °F 29.81 in Calm     96% 0.84 in
22:34 65.0 °F 63.8 °F 29.81 in Calm     96% 0.84 in
22:39 65.1 °F 63.9 °F 29.81 in Calm     96% 0.84 in
22:44 65.3 °F 64.1 °F 29.81 in Calm     96% 0.84 in
22:49 65.4 °F 64.2 °F 29.81 in Calm     96% 0.84 in
22:54 65.5 °F 64.3 °F 29.81 in Calm     96% 0.84 in
22:59 65.8 °F 64.6 °F 29.81 in Calm     96% 0.84 in
23:04 66.3 °F 65.1 °F 29.81 in South 2.0 mph 4.0 mph 96% 0.84 in
23:09 66.8 °F 65.9 °F 29.81 in SSW 1.0 mph 4.0 mph 97% 0.84 in
23:14 67.1 °F 66.2 °F 29.82 in Calm   4.0 mph 97% 0.84 in
23:19 67.2 °F 66.3 °F 29.81 in SSW 2.0 mph 4.0 mph 97% 0.84 in
23:24 67.2 °F 66.3 °F 29.81 in Calm   4.0 mph 97% 0.84 in
23:29 67.1 °F 66.2 °F 29.82 in SSW 3.0 mph 5.0 mph 97% 0.84 in
23:34 67.0 °F 66.1 °F 29.82 in Calm   6.0 mph 97% 0.84 in
23:39 67.0 °F 66.1 °F 29.83 in SSW 1.0 mph 6.0 mph 97% 0.84 in
23:44 67.1 °F 66.2 °F 29.83 in SW 2.0 mph 5.0 mph 97% 0.84 in
23:49 67.1 °F 66.2 °F 29.83 in Calm   5.0 mph 97% 0.84 in
23:54 67.3 °F 66.4 °F 29.83 in SSW 3.0 mph 7.0 mph 97% 0.84 in
23:59 67.4 °F 66.2 °F 29.83 in SSW 1.0 mph 7.0 mph 96% 0.84 in
Westford Weather
Compliments of Weather Underground

 
 
Current Radar Loop:

Copyright © WestfordWeather.net 2007-2014. All rights reserved.